<?xml version="1.0" encoding="UTF-8" standalone="no" ?>
<gpx xmlns="http://www.topografix.com/GPX/1/1" xmlns:xsi="http://www.w3.org/2001/XMLSchema-instance" xsi:schemaLocation="http://www.topografix.com/GPX/1/1 http://www.topografix.com/GPX/1/1/gpx.xsd" version="1.1" creator="VisuGPX - https://www.visugpx.com">
  <metadata>
    <name>Lachens modif'</name>
    <desc><![CDATA[Petite modification de la fin randonnée du lachens. Après le dernier ravito, sortie du ruisseau, une variante qui fait terminer à St Maxime par la DH. ]]></desc>
  </metadata>
  <trk>
    <name><![CDATA[Lachens modif'_2]]></name>
    <trkseg>
      <trkpt lat="43.37827" lon="6.64486">
        <ele>97</ele>
        <time>2019-05-30T13:32:31.000Z</time>
      </trkpt>
      <trkpt lat="43.37819" lon="6.64492">
        <ele>97.199996948242</ele>
        <time>2019-05-30T13:32:35.000Z</time>
      </trkpt>
      <trkpt lat="43.37803" lon="6.64503">
        <ele>97.599998474121</ele>
        <time>2019-05-30T13:32:42.000Z</time>
      </trkpt>
      <trkpt lat="43.37794" lon="6.64507">
        <ele>98</ele>
        <time>2019-05-30T13:32:46.000Z</time>
      </trkpt>
      <trkpt lat="43.37789" lon="6.64509">
        <ele>98.199996948242</ele>
        <time>2019-05-30T13:32:48.000Z</time>
      </trkpt>
      <trkpt lat="43.37779" lon="6.64513">
        <ele>99</ele>
        <time>2019-05-30T13:32:52.000Z</time>
      </trkpt>
      <trkpt lat="43.37773" lon="6.64517">
        <ele>99.400001525879</ele>
        <time>2019-05-30T13:32:55.000Z</time>
      </trkpt>
      <trkpt lat="43.37763" lon="6.64525">
        <ele>99</ele>
        <time>2019-05-30T13:33:00.000Z</time>
      </trkpt>
      <trkpt lat="43.37755" lon="6.64541">
        <ele>99.199996948242</ele>
        <time>2019-05-30T13:33:07.000Z</time>
      </trkpt>
      <trkpt lat="43.37752" lon="6.64551">
        <ele>100.19999694824</ele>
        <time>2019-05-30T13:33:11.000Z</time>
      </trkpt>
      <trkpt lat="43.37751" lon="6.64555">
        <ele>100.80000305176</ele>
        <time>2019-05-30T13:33:13.000Z</time>
      </trkpt>
      <trkpt lat="43.37749" lon="6.64557">
        <ele>101.40000152588</ele>
        <time>2019-05-30T13:33:15.000Z</time>
      </trkpt>
      <trkpt lat="43.37745" lon="6.64566">
        <ele>102.40000152588</ele>
        <time>2019-05-30T13:33:20.000Z</time>
      </trkpt>
      <trkpt lat="43.37743" lon="6.64569">
        <ele>102.59999847412</ele>
        <time>2019-05-30T13:33:21.000Z</time>
      </trkpt>
      <trkpt lat="43.37735" lon="6.64578">
        <ele>103.40000152588</ele>
        <time>2019-05-30T13:33:27.000Z</time>
      </trkpt>
      <trkpt lat="43.37734" lon="6.6458">
        <ele>103.59999847412</ele>
        <time>2019-05-30T13:33:28.000Z</time>
      </trkpt>
      <trkpt lat="43.37722" lon="6.64587">
        <ele>104.80000305176</ele>
        <time>2019-05-30T13:33:34.000Z</time>
      </trkpt>
      <trkpt lat="43.37718" lon="6.64589">
        <ele>105</ele>
        <time>2019-05-30T13:33:36.000Z</time>
      </trkpt>
      <trkpt lat="43.37699" lon="6.64594">
        <ele>105</ele>
        <time>2019-05-30T13:33:44.000Z</time>
      </trkpt>
      <trkpt lat="43.37679" lon="6.64594">
        <ele>106</ele>
        <time>2019-05-30T13:33:52.000Z</time>
      </trkpt>
      <trkpt lat="43.37677" lon="6.64593">
        <ele>106</ele>
        <time>2019-05-30T13:33:53.000Z</time>
      </trkpt>
      <trkpt lat="43.37665" lon="6.64589">
        <ele>107</ele>
        <time>2019-05-30T13:33:58.000Z</time>
      </trkpt>
      <trkpt lat="43.3766" lon="6.64586">
        <ele>107.19999694824</ele>
        <time>2019-05-30T13:34:00.000Z</time>
      </trkpt>
      <trkpt lat="43.3765" lon="6.6458">
        <ele>108</ele>
        <time>2019-05-30T13:34:04.000Z</time>
      </trkpt>
      <trkpt lat="43.3764" lon="6.64575">
        <ele>108</ele>
        <time>2019-05-30T13:34:07.000Z</time>
      </trkpt>
      <trkpt lat="43.37632" lon="6.64573">
        <ele>108</ele>
        <time>2019-05-30T13:34:09.000Z</time>
      </trkpt>
      <trkpt lat="43.37618" lon="6.64574">
        <ele>108</ele>
        <time>2019-05-30T13:34:12.000Z</time>
      </trkpt>
      <trkpt lat="43.3759" lon="6.64582">
        <ele>107.19999694824</ele>
        <time>2019-05-30T13:34:18.000Z</time>
      </trkpt>
      <trkpt lat="43.37572" lon="6.64592">
        <ele>107</ele>
        <time>2019-05-30T13:34:22.000Z</time>
      </trkpt>
      <trkpt lat="43.37564" lon="6.64599">
        <ele>106.80000305176</ele>
        <time>2019-05-30T13:34:24.000Z</time>
      </trkpt>
      <trkpt lat="43.37552" lon="6.64608">
        <ele>106.59999847412</ele>
        <time>2019-05-30T13:34:27.000Z</time>
      </trkpt>
      <trkpt lat="43.37537" lon="6.6462">
        <ele>106.80000305176</ele>
        <time>2019-05-30T13:34:31.000Z</time>
      </trkpt>
      <trkpt lat="43.37505" lon="6.64648">
        <ele>107.19999694824</ele>
        <time>2019-05-30T13:34:40.000Z</time>
      </trkpt>
      <trkpt lat="43.37485" lon="6.64663">
        <ele>108</ele>
        <time>2019-05-30T13:34:47.000Z</time>
      </trkpt>
      <trkpt lat="43.37483" lon="6.64665">
        <ele>108</ele>
        <time>2019-05-30T13:34:48.000Z</time>
      </trkpt>
      <trkpt lat="43.37473" lon="6.64671">
        <ele>109</ele>
        <time>2019-05-30T13:34:52.000Z</time>
      </trkpt>
      <trkpt lat="43.3747" lon="6.64673">
        <ele>109.19999694824</ele>
        <time>2019-05-30T13:34:53.000Z</time>
      </trkpt>
      <trkpt lat="43.37454" lon="6.64687">
        <ele>109.19999694824</ele>
        <time>2019-05-30T13:34:59.000Z</time>
      </trkpt>
      <trkpt lat="43.37431" lon="6.64705">
        <ele>110.19999694824</ele>
        <time>2019-05-30T13:35:07.000Z</time>
      </trkpt>
      <trkpt lat="43.37428" lon="6.64708">
        <ele>110.40000152588</ele>
        <time>2019-05-30T13:35:08.000Z</time>
      </trkpt>
      <trkpt lat="43.374" lon="6.64731">
        <ele>111.40000152588</ele>
        <time>2019-05-30T13:35:17.000Z</time>
      </trkpt>
      <trkpt lat="43.37396" lon="6.64734">
        <ele>111.59999847412</ele>
        <time>2019-05-30T13:35:18.000Z</time>
      </trkpt>
      <trkpt lat="43.37368" lon="6.64759">
        <ele>112</ele>
        <time>2019-05-30T13:35:26.000Z</time>
      </trkpt>
      <trkpt lat="43.37356" lon="6.64762">
        <ele>111.80000305176</ele>
        <time>2019-05-30T13:35:29.000Z</time>
      </trkpt>
      <trkpt lat="43.37348" lon="6.64762">
        <ele>111.59999847412</ele>
        <time>2019-05-30T13:35:31.000Z</time>
      </trkpt>
      <trkpt lat="43.37318" lon="6.64764">
        <ele>112.59999847412</ele>
        <time>2019-05-30T13:35:39.000Z</time>
      </trkpt>
      <trkpt lat="43.37291" lon="6.64767">
        <ele>113</ele>
        <time>2019-05-30T13:35:46.000Z</time>
      </trkpt>
      <trkpt lat="43.37278" lon="6.64763">
        <ele>112.19999694824</ele>
        <time>2019-05-30T13:35:50.000Z</time>
      </trkpt>
      <trkpt lat="43.37264" lon="6.64748">
        <ele>112.80000305176</ele>
        <time>2019-05-30T13:35:56.000Z</time>
      </trkpt>
      <trkpt lat="43.37246" lon="6.64721">
        <ele>113.80000305176</ele>
        <time>2019-05-30T13:36:04.000Z</time>
      </trkpt>
      <trkpt lat="43.37226" lon="6.64694">
        <ele>114.40000152588</ele>
        <time>2019-05-30T13:36:12.000Z</time>
      </trkpt>
      <trkpt lat="43.37211" lon="6.64693">
        <ele>114.80000305176</ele>
        <time>2019-05-30T13:36:17.000Z</time>
      </trkpt>
      <trkpt lat="43.37188" lon="6.647">
        <ele>114.40000152588</ele>
        <time>2019-05-30T13:36:24.000Z</time>
      </trkpt>
      <trkpt lat="43.37183" lon="6.64702">
        <ele>115</ele>
        <time>2019-05-30T13:36:26.000Z</time>
      </trkpt>
      <trkpt lat="43.37171" lon="6.64711">
        <ele>116</ele>
        <time>2019-05-30T13:36:30.000Z</time>
      </trkpt>
      <trkpt lat="43.37154" lon="6.64719">
        <ele>116.40000152588</ele>
        <time>2019-05-30T13:36:36.000Z</time>
      </trkpt>
      <trkpt lat="43.37127" lon="6.64729">
        <ele>116.40000152588</ele>
        <time>2019-05-30T13:36:44.000Z</time>
      </trkpt>
      <trkpt lat="43.37104" lon="6.6474">
        <ele>116.80000305176</ele>
        <time>2019-05-30T13:36:51.000Z</time>
      </trkpt>
      <trkpt lat="43.37095" lon="6.64745">
        <ele>117</ele>
        <time>2019-05-30T13:36:54.000Z</time>
      </trkpt>
      <trkpt lat="43.37083" lon="6.64755">
        <ele>117.59999847412</ele>
        <time>2019-05-30T13:36:58.000Z</time>
      </trkpt>
      <trkpt lat="43.3706" lon="6.64768">
        <ele>118</ele>
        <time>2019-05-30T13:37:06.000Z</time>
      </trkpt>
      <trkpt lat="43.37057" lon="6.64768">
        <ele>118.40000152588</ele>
        <time>2019-05-30T13:37:07.000Z</time>
      </trkpt>
      <trkpt lat="43.37031" lon="6.64773">
        <ele>119</ele>
        <time>2019-05-30T13:37:15.000Z</time>
      </trkpt>
      <trkpt lat="43.37002" lon="6.64767">
        <ele>119.80000305176</ele>
        <time>2019-05-30T13:37:24.000Z</time>
      </trkpt>
      <trkpt lat="43.36983" lon="6.64759">
        <ele>120.19999694824</ele>
        <time>2019-05-30T13:37:30.000Z</time>
      </trkpt>
      <trkpt lat="43.36977" lon="6.64758">
        <ele>120.40000152588</ele>
        <time>2019-05-30T13:37:32.000Z</time>
      </trkpt>
      <trkpt lat="43.36959" lon="6.64756">
        <ele>120.80000305176</ele>
        <time>2019-05-30T13:37:38.000Z</time>
      </trkpt>
      <trkpt lat="43.36939" lon="6.64761">
        <ele>121</ele>
        <time>2019-05-30T13:37:45.000Z</time>
      </trkpt>
      <trkpt lat="43.36934" lon="6.64762">
        <ele>121.40000152588</ele>
        <time>2019-05-30T13:37:47.000Z</time>
      </trkpt>
      <trkpt lat="43.3692" lon="6.64768">
        <ele>120.80000305176</ele>
        <time>2019-05-30T13:37:52.000Z</time>
      </trkpt>
      <trkpt lat="43.36903" lon="6.64778">
        <ele>121</ele>
        <time>2019-05-30T13:37:59.000Z</time>
      </trkpt>
      <trkpt lat="43.36894" lon="6.64785">
        <ele>121.80000305176</ele>
        <time>2019-05-30T13:38:05.000Z</time>
      </trkpt>
      <trkpt lat="43.36885" lon="6.64795">
        <ele>122.59999847412</ele>
        <time>2019-05-30T13:38:10.000Z</time>
      </trkpt>
      <trkpt lat="43.36882" lon="6.648">
        <ele>122.59999847412</ele>
        <time>2019-05-30T13:38:12.000Z</time>
      </trkpt>
      <trkpt lat="43.36875" lon="6.64818">
        <ele>123.19999694824</ele>
        <time>2019-05-30T13:38:18.000Z</time>
      </trkpt>
      <trkpt lat="43.36874" lon="6.64829">
        <ele>123.59999847412</ele>
        <time>2019-05-30T13:38:21.000Z</time>
      </trkpt>
      <trkpt lat="43.36872" lon="6.64837">
        <ele>124.19999694824</ele>
        <time>2019-05-30T13:38:24.000Z</time>
      </trkpt>
      <trkpt lat="43.3687" lon="6.64845">
        <ele>124.59999847412</ele>
        <time>2019-05-30T13:38:27.000Z</time>
      </trkpt>
      <trkpt lat="43.36867" lon="6.64853">
        <ele>125.19999694824</ele>
        <time>2019-05-30T13:38:31.000Z</time>
      </trkpt>
      <trkpt lat="43.36864" lon="6.64856">
        <ele>125.59999847412</ele>
        <time>2019-05-30T13:38:33.000Z</time>
      </trkpt>
      <trkpt lat="43.36858" lon="6.6486">
        <ele>126.40000152588</ele>
        <time>2019-05-30T13:38:36.000Z</time>
      </trkpt>
      <trkpt lat="43.36839" lon="6.64864">
        <ele>126.59999847412</ele>
        <time>2019-05-30T13:38:42.000Z</time>
      </trkpt>
      <trkpt lat="43.36836" lon="6.64865">
        <ele>126.59999847412</ele>
        <time>2019-05-30T13:38:43.000Z</time>
      </trkpt>
      <trkpt lat="43.36811" lon="6.64872">
        <ele>126.80000305176</ele>
        <time>2019-05-30T13:38:51.000Z</time>
      </trkpt>
      <trkpt lat="43.36791" lon="6.64876">
        <ele>127.19999694824</ele>
        <time>2019-05-30T13:38:58.000Z</time>
      </trkpt>
      <trkpt lat="43.36779" lon="6.64876">
        <ele>127.80000305176</ele>
        <time>2019-05-30T13:39:02.000Z</time>
      </trkpt>
      <trkpt lat="43.36769" lon="6.64876">
        <ele>128</ele>
        <time>2019-05-30T13:39:05.000Z</time>
      </trkpt>
      <trkpt lat="43.36738" lon="6.64878">
        <ele>128.39999389648</ele>
        <time>2019-05-30T13:39:15.000Z</time>
      </trkpt>
      <trkpt lat="43.36729" lon="6.6488">
        <ele>128.80000305176</ele>
        <time>2019-05-30T13:39:18.000Z</time>
      </trkpt>
      <trkpt lat="43.36711" lon="6.64886">
        <ele>129</ele>
        <time>2019-05-30T13:39:24.000Z</time>
      </trkpt>
      <trkpt lat="43.36701" lon="6.6489">
        <ele>129.80000305176</ele>
        <time>2019-05-30T13:39:28.000Z</time>
      </trkpt>
      <trkpt lat="43.36693" lon="6.64894">
        <ele>130.19999694824</ele>
        <time>2019-05-30T13:39:31.000Z</time>
      </trkpt>
      <trkpt lat="43.36677" lon="6.64903">
        <ele>131</ele>
        <time>2019-05-30T13:39:37.000Z</time>
      </trkpt>
      <trkpt lat="43.36665" lon="6.64909">
        <ele>131.39999389648</ele>
        <time>2019-05-30T13:39:41.000Z</time>
      </trkpt>
      <trkpt lat="43.36655" lon="6.64913">
        <ele>132</ele>
        <time>2019-05-30T13:39:44.000Z</time>
      </trkpt>
      <trkpt lat="43.3664" lon="6.64921">
        <ele>132</ele>
        <time>2019-05-30T13:39:49.000Z</time>
      </trkpt>
      <trkpt lat="43.36606" lon="6.64941">
        <ele>132.39999389648</ele>
        <time>2019-05-30T13:39:59.000Z</time>
      </trkpt>
      <trkpt lat="43.36584" lon="6.64958">
        <ele>133.19999694824</ele>
        <time>2019-05-30T13:40:07.000Z</time>
      </trkpt>
      <trkpt lat="43.36582" lon="6.6496">
        <ele>133.39999389648</ele>
        <time>2019-05-30T13:40:08.000Z</time>
      </trkpt>
      <trkpt lat="43.36572" lon="6.64972">
        <ele>134.39999389648</ele>
        <time>2019-05-30T13:40:14.000Z</time>
      </trkpt>
      <trkpt lat="43.3657" lon="6.64978">
        <ele>135</ele>
        <time>2019-05-30T13:40:17.000Z</time>
      </trkpt>
      <trkpt lat="43.36568" lon="6.64987">
        <ele>135.39999389648</ele>
        <time>2019-05-30T13:40:20.000Z</time>
      </trkpt>
      <trkpt lat="43.36568" lon="6.65002">
        <ele>135.80000305176</ele>
        <time>2019-05-30T13:40:24.000Z</time>
      </trkpt>
      <trkpt lat="43.36569" lon="6.65044">
        <ele>135.60000610352</ele>
        <time>2019-05-30T13:40:34.000Z</time>
      </trkpt>
      <trkpt lat="43.36571" lon="6.65076">
        <ele>136.19999694824</ele>
        <time>2019-05-30T13:40:42.000Z</time>
      </trkpt>
      <trkpt lat="43.36572" lon="6.65083">
        <ele>136.39999389648</ele>
        <time>2019-05-30T13:40:44.000Z</time>
      </trkpt>
      <trkpt lat="43.36578" lon="6.65106">
        <ele>136.80000305176</ele>
        <time>2019-05-30T13:40:50.000Z</time>
      </trkpt>
      <trkpt lat="43.36585" lon="6.6513">
        <ele>137</ele>
        <time>2019-05-30T13:40:57.000Z</time>
      </trkpt>
      <trkpt lat="43.36586" lon="6.65138">
        <ele>137.60000610352</ele>
        <time>2019-05-30T13:40:59.000Z</time>
      </trkpt>
      <trkpt lat="43.36589" lon="6.65164">
        <ele>138.39999389648</ele>
        <time>2019-05-30T13:41:05.000Z</time>
      </trkpt>
      <trkpt lat="43.36589" lon="6.65171">
        <ele>138.80000305176</ele>
        <time>2019-05-30T13:41:07.000Z</time>
      </trkpt>
      <trkpt lat="43.3659" lon="6.65188">
        <ele>139.39999389648</ele>
        <time>2019-05-30T13:41:12.000Z</time>
      </trkpt>
      <trkpt lat="43.36591" lon="6.65201">
        <ele>139.80000305176</ele>
        <time>2019-05-30T13:41:15.000Z</time>
      </trkpt>
      <trkpt lat="43.36589" lon="6.65217">
        <ele>140</ele>
        <time>2019-05-30T13:41:19.000Z</time>
      </trkpt>
      <trkpt lat="43.36587" lon="6.65246">
        <ele>140.39999389648</ele>
        <time>2019-05-30T13:41:27.000Z</time>
      </trkpt>
      <trkpt lat="43.36584" lon="6.65267">
        <ele>141</ele>
        <time>2019-05-30T13:41:33.000Z</time>
      </trkpt>
      <trkpt lat="43.36584" lon="6.65274">
        <ele>141.39999389648</ele>
        <time>2019-05-30T13:41:35.000Z</time>
      </trkpt>
      <trkpt lat="43.36585" lon="6.653">
        <ele>142</ele>
        <time>2019-05-30T13:41:42.000Z</time>
      </trkpt>
      <trkpt lat="43.36587" lon="6.65307">
        <ele>142.19999694824</ele>
        <time>2019-05-30T13:41:44.000Z</time>
      </trkpt>
      <trkpt lat="43.36592" lon="6.65321">
        <ele>143.19999694824</ele>
        <time>2019-05-30T13:41:48.000Z</time>
      </trkpt>
      <trkpt lat="43.36597" lon="6.65337">
        <ele>143.39999389648</ele>
        <time>2019-05-30T13:41:52.000Z</time>
      </trkpt>
      <trkpt lat="43.36597" lon="6.65369">
        <ele>143.60000610352</ele>
        <time>2019-05-30T13:41:59.000Z</time>
      </trkpt>
      <trkpt lat="43.36598" lon="6.65397">
        <ele>143.60000610352</ele>
        <time>2019-05-30T13:42:06.000Z</time>
      </trkpt>
      <trkpt lat="43.36599" lon="6.65412">
        <ele>144.19999694824</ele>
        <time>2019-05-30T13:42:10.000Z</time>
      </trkpt>
      <trkpt lat="43.36599" lon="6.65421">
        <ele>144.39999389648</ele>
        <time>2019-05-30T13:42:12.000Z</time>
      </trkpt>
      <trkpt lat="43.366" lon="6.65457">
        <ele>144.60000610352</ele>
        <time>2019-05-30T13:42:20.000Z</time>
      </trkpt>
      <trkpt lat="43.36606" lon="6.65478">
        <ele>145.19999694824</ele>
        <time>2019-05-30T13:42:27.000Z</time>
      </trkpt>
      <trkpt lat="43.36607" lon="6.65481">
        <ele>145.19999694824</ele>
        <time>2019-05-30T13:42:28.000Z</time>
      </trkpt>
      <trkpt lat="43.36612" lon="6.65497">
        <ele>146.19999694824</ele>
        <time>2019-05-30T13:42:34.000Z</time>
      </trkpt>
      <trkpt lat="43.36613" lon="6.65499">
        <ele>146.39999389648</ele>
        <time>2019-05-30T13:42:35.000Z</time>
      </trkpt>
      <trkpt lat="43.36617" lon="6.65513">
        <ele>147.39999389648</ele>
        <time>2019-05-30T13:42:41.000Z</time>
      </trkpt>
      <trkpt lat="43.36618" lon="6.65515">
        <ele>147.80000305176</ele>
        <time>2019-05-30T13:42:42.000Z</time>
      </trkpt>
      <trkpt lat="43.36619" lon="6.65521">
        <ele>148.80000305176</ele>
        <time>2019-05-30T13:42:45.000Z</time>
      </trkpt>
      <trkpt lat="43.36618" lon="6.65532">
        <ele>149.80000305176</ele>
        <time>2019-05-30T13:42:50.000Z</time>
      </trkpt>
      <trkpt lat="43.36613" lon="6.65554">
        <ele>150.19999694824</ele>
        <time>2019-05-30T13:42:57.000Z</time>
      </trkpt>
      <trkpt lat="43.36613" lon="6.65584">
        <ele>150</ele>
        <time>2019-05-30T13:43:04.000Z</time>
      </trkpt>
      <trkpt lat="43.36616" lon="6.65599">
        <ele>150.39999389648</ele>
        <time>2019-05-30T13:43:08.000Z</time>
      </trkpt>
      <trkpt lat="43.3662" lon="6.65607">
        <ele>150.80000305176</ele>
        <time>2019-05-30T13:43:12.000Z</time>
      </trkpt>
      <trkpt lat="43.36623" lon="6.65612">
        <ele>151.60000610352</ele>
        <time>2019-05-30T13:43:15.000Z</time>
      </trkpt>
      <trkpt lat="43.36624" lon="6.65616">
        <ele>152</ele>
        <time>2019-05-30T13:43:17.000Z</time>
      </trkpt>
      <trkpt lat="43.36629" lon="6.65626">
        <ele>152.60000610352</ele>
        <time>2019-05-30T13:43:22.000Z</time>
      </trkpt>
      <trkpt lat="43.36631" lon="6.65634">
        <ele>153</ele>
        <time>2019-05-30T13:43:25.000Z</time>
      </trkpt>
      <trkpt lat="43.36633" lon="6.6564">
        <ele>153.19999694824</ele>
        <time>2019-05-30T13:43:28.000Z</time>
      </trkpt>
      <trkpt lat="43.36637" lon="6.65658">
        <ele>154</ele>
        <time>2019-05-30T13:43:35.000Z</time>
      </trkpt>
      <trkpt lat="43.36643" lon="6.65674">
        <ele>154.80000305176</ele>
        <time>2019-05-30T13:43:41.000Z</time>
      </trkpt>
      <trkpt lat="43.36647" lon="6.65681">
        <ele>155.19999694824</ele>
        <time>2019-05-30T13:43:44.000Z</time>
      </trkpt>
      <trkpt lat="43.36651" lon="6.65688">
        <ele>155.19999694824</ele>
        <time>2019-05-30T13:43:47.000Z</time>
      </trkpt>
      <trkpt lat="43.36658" lon="6.65706">
        <ele>155.80000305176</ele>
        <time>2019-05-30T13:43:54.000Z</time>
      </trkpt>
      <trkpt lat="43.36662" lon="6.65714">
        <ele>156.19999694824</ele>
        <time>2019-05-30T13:43:57.000Z</time>
      </trkpt>
      <trkpt lat="43.36665" lon="6.65719">
        <ele>156.19999694824</ele>
        <time>2019-05-30T13:43:59.000Z</time>
      </trkpt>
      <trkpt lat="43.36675" lon="6.65735">
        <ele>157</ele>
        <time>2019-05-30T13:44:06.000Z</time>
      </trkpt>
      <trkpt lat="43.36676" lon="6.65737">
        <ele>157.19999694824</ele>
        <time>2019-05-30T13:44:07.000Z</time>
      </trkpt>
      <trkpt lat="43.36681" lon="6.6575">
        <ele>158.60000610352</ele>
        <time>2019-05-30T13:44:13.000Z</time>
      </trkpt>
      <trkpt lat="43.36682" lon="6.65756">
        <ele>159.60000610352</ele>
        <time>2019-05-30T13:44:16.000Z</time>
      </trkpt>
      <trkpt lat="43.36683" lon="6.65767">
        <ele>159.80000305176</ele>
        <time>2019-05-30T13:44:21.000Z</time>
      </trkpt>
      <trkpt lat="43.36677" lon="6.65786">
        <ele>160.19999694824</ele>
        <time>2019-05-30T13:44:29.000Z</time>
      </trkpt>
      <trkpt lat="43.36676" lon="6.65789">
        <ele>160.80000305176</ele>
        <time>2019-05-30T13:44:30.000Z</time>
      </trkpt>
      <trkpt lat="43.36668" lon="6.65802">
        <ele>161.39999389648</ele>
        <time>2019-05-30T13:44:36.000Z</time>
      </trkpt>
      <trkpt lat="43.36666" lon="6.65806">
        <ele>161.80000305176</ele>
        <time>2019-05-30T13:44:38.000Z</time>
      </trkpt>
      <trkpt lat="43.36659" lon="6.65812">
        <ele>162.60000610352</ele>
        <time>2019-05-30T13:44:42.000Z</time>
      </trkpt>
      <trkpt lat="43.36657" lon="6.65816">
        <ele>163</ele>
        <time>2019-05-30T13:44:44.000Z</time>
      </trkpt>
      <trkpt lat="43.36655" lon="6.65824">
        <ele>164</ele>
        <time>2019-05-30T13:44:47.000Z</time>
      </trkpt>
      <trkpt lat="43.36651" lon="6.65842">
        <ele>164.80000305176</ele>
        <time>2019-05-30T13:44:53.000Z</time>
      </trkpt>
      <trkpt lat="43.36653" lon="6.65865">
        <ele>165.19999694824</ele>
        <time>2019-05-30T13:45:00.000Z</time>
      </trkpt>
      <trkpt lat="43.36659" lon="6.65872">
        <ele>165.60000610352</ele>
        <time>2019-05-30T13:45:05.000Z</time>
      </trkpt>
      <trkpt lat="43.36666" lon="6.65872">
        <ele>166.19999694824</ele>
        <time>2019-05-30T13:45:09.000Z</time>
      </trkpt>
      <trkpt lat="43.36669" lon="6.65871">
        <ele>166.39999389648</ele>
        <time>2019-05-30T13:45:11.000Z</time>
      </trkpt>
      <trkpt lat="43.36679" lon="6.65866">
        <ele>167.39999389648</ele>
        <time>2019-05-30T13:45:18.000Z</time>
      </trkpt>
      <trkpt lat="43.3669" lon="6.65859">
        <ele>167.80000305176</ele>
        <time>2019-05-30T13:45:25.000Z</time>
      </trkpt>
      <trkpt lat="43.36698" lon="6.65857">
        <ele>168.60000610352</ele>
        <time>2019-05-30T13:45:30.000Z</time>
      </trkpt>
      <trkpt lat="43.367" lon="6.65856">
        <ele>168.80000305176</ele>
        <time>2019-05-30T13:45:32.000Z</time>
      </trkpt>
      <trkpt lat="43.36703" lon="6.65856">
        <ele>169</ele>
        <time>2019-05-30T13:45:34.000Z</time>
      </trkpt>
      <trkpt lat="43.36707" lon="6.6586">
        <ele>169.60000610352</ele>
        <time>2019-05-30T13:45:37.000Z</time>
      </trkpt>
      <trkpt lat="43.36713" lon="6.65868">
        <ele>170.80000305176</ele>
        <time>2019-05-30T13:45:43.000Z</time>
      </trkpt>
      <trkpt lat="43.36715" lon="6.65871">
        <ele>171.19999694824</ele>
        <time>2019-05-30T13:45:45.000Z</time>
      </trkpt>
      <trkpt lat="43.36717" lon="6.65877">
        <ele>171.80000305176</ele>
        <time>2019-05-30T13:45:48.000Z</time>
      </trkpt>
      <trkpt lat="43.36719" lon="6.65882">
        <ele>172.60000610352</ele>
        <time>2019-05-30T13:45:51.000Z</time>
      </trkpt>
      <trkpt lat="43.36721" lon="6.65887">
        <ele>173</ele>
        <time>2019-05-30T13:45:54.000Z</time>
      </trkpt>
      <trkpt lat="43.36723" lon="6.65893">
        <ele>173.60000610352</ele>
        <time>2019-05-30T13:45:58.000Z</time>
      </trkpt>
      <trkpt lat="43.36724" lon="6.65897">
        <ele>174</ele>
        <time>2019-05-30T13:46:00.000Z</time>
      </trkpt>
      <trkpt lat="43.36727" lon="6.65907">
        <ele>175</ele>
        <time>2019-05-30T13:46:06.000Z</time>
      </trkpt>
      <trkpt lat="43.36728" lon="6.65909">
        <ele>175.19999694824</ele>
        <time>2019-05-30T13:46:07.000Z</time>
      </trkpt>
      <trkpt lat="43.3673" lon="6.65919">
        <ele>175.60000610352</ele>
        <time>2019-05-30T13:46:12.000Z</time>
      </trkpt>
      <trkpt lat="43.36732" lon="6.65927">
        <ele>176.39999389648</ele>
        <time>2019-05-30T13:46:16.000Z</time>
      </trkpt>
      <trkpt lat="43.36733" lon="6.65931">
        <ele>176.80000305176</ele>
        <time>2019-05-30T13:46:18.000Z</time>
      </trkpt>
      <trkpt lat="43.36734" lon="6.65935">
        <ele>177.39999389648</ele>
        <time>2019-05-30T13:46:20.000Z</time>
      </trkpt>
      <trkpt lat="43.36736" lon="6.65942">
        <ele>178.19999694824</ele>
        <time>2019-05-30T13:46:24.000Z</time>
      </trkpt>
      <trkpt lat="43.36736" lon="6.65944">
        <ele>178.39999389648</ele>
        <time>2019-05-30T13:46:25.000Z</time>
      </trkpt>
      <trkpt lat="43.36738" lon="6.6595">
        <ele>179.39999389648</ele>
        <time>2019-05-30T13:46:29.000Z</time>
      </trkpt>
      <trkpt lat="43.3674" lon="6.65958">
        <ele>180.60000610352</ele>
        <time>2019-05-30T13:46:34.000Z</time>
      </trkpt>
      <trkpt lat="43.3674" lon="6.6596">
        <ele>180.60000610352</ele>
        <time>2019-05-30T13:46:35.000Z</time>
      </trkpt>
      <trkpt lat="43.36743" lon="6.65973">
        <ele>181.60000610352</ele>
        <time>2019-05-30T13:46:42.000Z</time>
      </trkpt>
      <trkpt lat="43.36744" lon="6.65975">
        <ele>181.60000610352</ele>
        <time>2019-05-30T13:46:43.000Z</time>
      </trkpt>
      <trkpt lat="43.3675" lon="6.65993">
        <ele>182.19999694824</ele>
        <time>2019-05-30T13:46:51.000Z</time>
      </trkpt>
      <trkpt lat="43.36753" lon="6.66012">
        <ele>182.19999694824</ele>
        <time>2019-05-30T13:46:58.000Z</time>
      </trkpt>
      <trkpt lat="43.36755" lon="6.6602">
        <ele>182.19999694824</ele>
        <time>2019-05-30T13:47:02.000Z</time>
      </trkpt>
      <trkpt lat="43.36757" lon="6.66024">
        <ele>182.80000305176</ele>
        <time>2019-05-30T13:47:04.000Z</time>
      </trkpt>
      <trkpt lat="43.36758" lon="6.66033">
        <ele>183.80000305176</ele>
        <time>2019-05-30T13:47:08.000Z</time>
      </trkpt>
      <trkpt lat="43.36759" lon="6.66037">
        <ele>184.19999694824</ele>
        <time>2019-05-30T13:47:10.000Z</time>
      </trkpt>
      <trkpt lat="43.36759" lon="6.66045">
        <ele>185</ele>
        <time>2019-05-30T13:47:14.000Z</time>
      </trkpt>
      <trkpt lat="43.36759" lon="6.66051">
        <ele>185.39999389648</ele>
        <time>2019-05-30T13:47:17.000Z</time>
      </trkpt>
      <trkpt lat="43.36758" lon="6.6606">
        <ele>186.19999694824</ele>
        <time>2019-05-30T13:47:21.000Z</time>
      </trkpt>
      <trkpt lat="43.36757" lon="6.66071">
        <ele>186.80000305176</ele>
        <time>2019-05-30T13:47:25.000Z</time>
      </trkpt>
      <trkpt lat="43.36757" lon="6.66083">
        <ele>187.19999694824</ele>
        <time>2019-05-30T13:47:29.000Z</time>
      </trkpt>
      <trkpt lat="43.36758" lon="6.6609">
        <ele>187.60000610352</ele>
        <time>2019-05-30T13:47:32.000Z</time>
      </trkpt>
      <trkpt lat="43.36759" lon="6.66097">
        <ele>188.19999694824</ele>
        <time>2019-05-30T13:47:35.000Z</time>
      </trkpt>
      <trkpt lat="43.36759" lon="6.66107">
        <ele>189</ele>
        <time>2019-05-30T13:47:39.000Z</time>
      </trkpt>
      <trkpt lat="43.36759" lon="6.66111">
        <ele>189.19999694824</ele>
        <time>2019-05-30T13:47:41.000Z</time>
      </trkpt>
      <trkpt lat="43.36761" lon="6.66119">
        <ele>190.19999694824</ele>
        <time>2019-05-30T13:47:45.000Z</time>
      </trkpt>
      <trkpt lat="43.36761" lon="6.66121">
        <ele>190.39999389648</ele>
        <time>2019-05-30T13:47:46.000Z</time>
      </trkpt>
      <trkpt lat="43.36759" lon="6.66132">
        <ele>190.80000305176</ele>
        <time>2019-05-30T13:47:51.000Z</time>
      </trkpt>
      <trkpt lat="43.36753" lon="6.66142">
        <ele>191.19999694824</ele>
        <time>2019-05-30T13:47:57.000Z</time>
      </trkpt>
      <trkpt lat="43.36745" lon="6.66155">
        <ele>191.39999389648</ele>
        <time>2019-05-30T13:48:03.000Z</time>
      </trkpt>
      <trkpt lat="43.36744" lon="6.66157">
        <ele>191.60000610352</ele>
        <time>2019-05-30T13:48:04.000Z</time>
      </trkpt>
      <trkpt lat="43.36737" lon="6.6617">
        <ele>192.19999694824</ele>
        <time>2019-05-30T13:48:10.000Z</time>
      </trkpt>
      <trkpt lat="43.36736" lon="6.66175">
        <ele>192.60000610352</ele>
        <time>2019-05-30T13:48:12.000Z</time>
      </trkpt>
      <trkpt lat="43.36732" lon="6.66184">
        <ele>193.19999694824</ele>
        <time>2019-05-30T13:48:16.000Z</time>
      </trkpt>
      <trkpt lat="43.36731" lon="6.66186">
        <ele>193.60000610352</ele>
        <time>2019-05-30T13:48:17.000Z</time>
      </trkpt>
      <trkpt lat="43.36723" lon="6.66201">
        <ele>194.39999389648</ele>
        <time>2019-05-30T13:48:24.000Z</time>
      </trkpt>
      <trkpt lat="43.36718" lon="6.6621">
        <ele>194.60000610352</ele>
        <time>2019-05-30T13:48:28.000Z</time>
      </trkpt>
      <trkpt lat="43.36711" lon="6.6622">
        <ele>195</ele>
        <time>2019-05-30T13:48:33.000Z</time>
      </trkpt>
      <trkpt lat="43.36704" lon="6.66226">
        <ele>195.60000610352</ele>
        <time>2019-05-30T13:48:37.000Z</time>
      </trkpt>
      <trkpt lat="43.36696" lon="6.66233">
        <ele>196</ele>
        <time>2019-05-30T13:48:41.000Z</time>
      </trkpt>
      <trkpt lat="43.36687" lon="6.6624">
        <ele>196.60000610352</ele>
        <time>2019-05-30T13:48:45.000Z</time>
      </trkpt>
      <trkpt lat="43.36681" lon="6.66251">
        <ele>196.80000305176</ele>
        <time>2019-05-30T13:48:50.000Z</time>
      </trkpt>
      <trkpt lat="43.36671" lon="6.66263">
        <ele>197</ele>
        <time>2019-05-30T13:48:55.000Z</time>
      </trkpt>
      <trkpt lat="43.36658" lon="6.66282">
        <ele>197</ele>
        <time>2019-05-30T13:49:00.000Z</time>
      </trkpt>
      <trkpt lat="43.36657" lon="6.66288">
        <ele>197</ele>
        <time>2019-05-30T13:49:01.000Z</time>
      </trkpt>
      <trkpt lat="43.36657" lon="6.66307">
        <ele>196.60000610352</ele>
        <time>2019-05-30T13:49:05.000Z</time>
      </trkpt>
      <trkpt lat="43.36658" lon="6.66313">
        <ele>196.39999389648</ele>
        <time>2019-05-30T13:49:06.000Z</time>
      </trkpt>
      <trkpt lat="43.36658" lon="6.66336">
        <ele>195.60000610352</ele>
        <time>2019-05-30T13:49:10.000Z</time>
      </trkpt>
      <trkpt lat="43.36658" lon="6.66342">
        <ele>195.19999694824</ele>
        <time>2019-05-30T13:49:11.000Z</time>
      </trkpt>
      <trkpt lat="43.36656" lon="6.66366">
        <ele>194.80000305176</ele>
        <time>2019-05-30T13:49:14.000Z</time>
      </trkpt>
      <trkpt lat="43.36656" lon="6.66373">
        <ele>194.60000610352</ele>
        <time>2019-05-30T13:49:15.000Z</time>
      </trkpt>
      <trkpt lat="43.36657" lon="6.66379">
        <ele>194.60000610352</ele>
        <time>2019-05-30T13:49:16.000Z</time>
      </trkpt>
      <trkpt lat="43.36663" lon="6.66401">
        <ele>192.80000305176</ele>
        <time>2019-05-30T13:49:19.000Z</time>
      </trkpt>
      <trkpt lat="43.36666" lon="6.66418">
        <ele>191.60000610352</ele>
        <time>2019-05-30T13:49:21.000Z</time>
      </trkpt>
      <trkpt lat="43.36667" lon="6.66435">
        <ele>190.80000305176</ele>
        <time>2019-05-30T13:49:23.000Z</time>
      </trkpt>
      <trkpt lat="43.36669" lon="6.66455">
        <ele>190.19999694824</ele>
        <time>2019-05-30T13:49:25.000Z</time>
      </trkpt>
      <trkpt lat="43.36667" lon="6.66486">
        <ele>188.60000610352</ele>
        <time>2019-05-30T13:49:28.000Z</time>
      </trkpt>
      <trkpt lat="43.36666" lon="6.66507">
        <ele>187</ele>
        <time>2019-05-30T13:49:30.000Z</time>
      </trkpt>
      <trkpt lat="43.36665" lon="6.66517">
        <ele>186</ele>
        <time>2019-05-30T13:49:31.000Z</time>
      </trkpt>
      <trkpt lat="43.36665" lon="6.6654">
        <ele>184.19999694824</ele>
        <time>2019-05-30T13:49:33.000Z</time>
      </trkpt>
      <trkpt lat="43.36666" lon="6.66551">
        <ele>183.19999694824</ele>
        <time>2019-05-30T13:49:34.000Z</time>
      </trkpt>
      <trkpt lat="43.36667" lon="6.66563">
        <ele>182.80000305176</ele>
        <time>2019-05-30T13:49:35.000Z</time>
      </trkpt>
      <trkpt lat="43.3667" lon="6.66578">
        <ele>181.39999389648</ele>
        <time>2019-05-30T13:49:37.000Z</time>
      </trkpt>
      <trkpt lat="43.36674" lon="6.66609">
        <ele>180</ele>
        <time>2019-05-30T13:49:39.000Z</time>
      </trkpt>
      <trkpt lat="43.36672" lon="6.6663">
        <ele>178.80000305176</ele>
        <time>2019-05-30T13:49:41.000Z</time>
      </trkpt>
      <trkpt lat="43.36668" lon="6.6665">
        <ele>177.60000610352</ele>
        <time>2019-05-30T13:49:43.000Z</time>
      </trkpt>
      <trkpt lat="43.36655" lon="6.66671">
        <ele>177.19999694824</ele>
        <time>2019-05-30T13:49:46.000Z</time>
      </trkpt>
      <trkpt lat="43.36638" lon="6.66673">
        <ele>178.19999694824</ele>
        <time>2019-05-30T13:49:49.000Z</time>
      </trkpt>
      <trkpt lat="43.36627" lon="6.66668">
        <ele>179</ele>
        <time>2019-05-30T13:49:51.000Z</time>
      </trkpt>
      <trkpt lat="43.36622" lon="6.66665">
        <ele>179.39999389648</ele>
        <time>2019-05-30T13:49:52.000Z</time>
      </trkpt>
      <trkpt lat="43.3661" lon="6.66659">
        <ele>179.60000610352</ele>
        <time>2019-05-30T13:49:54.000Z</time>
      </trkpt>
      <trkpt lat="43.36588" lon="6.66642">
        <ele>179.80000305176</ele>
        <time>2019-05-30T13:49:58.000Z</time>
      </trkpt>
      <trkpt lat="43.36584" lon="6.66636">
        <ele>179.60000610352</ele>
        <time>2019-05-30T13:49:59.000Z</time>
      </trkpt>
      <trkpt lat="43.36558" lon="6.66602">
        <ele>179.80000305176</ele>
        <time>2019-05-30T13:50:05.000Z</time>
      </trkpt>
      <trkpt lat="43.36548" lon="6.66593">
        <ele>180</ele>
        <time>2019-05-30T13:50:07.000Z</time>
      </trkpt>
      <trkpt lat="43.36529" lon="6.66572">
        <ele>180</ele>
        <time>2019-05-30T13:50:11.000Z</time>
      </trkpt>
      <trkpt lat="43.36509" lon="6.66555">
        <ele>179.39999389648</ele>
        <time>2019-05-30T13:50:15.000Z</time>
      </trkpt>
      <trkpt lat="43.36503" lon="6.66564">
        <ele>178.80000305176</ele>
        <time>2019-05-30T13:50:17.000Z</time>
      </trkpt>
      <trkpt lat="43.36506" lon="6.66582">
        <ele>178</ele>
        <time>2019-05-30T13:50:20.000Z</time>
      </trkpt>
      <trkpt lat="43.36508" lon="6.66588">
        <ele>177.60000610352</ele>
        <time>2019-05-30T13:50:21.000Z</time>
      </trkpt>
      <trkpt lat="43.36511" lon="6.66614">
        <ele>177.19999694824</ele>
        <time>2019-05-30T13:50:25.000Z</time>
      </trkpt>
      <trkpt lat="43.36511" lon="6.6662">
        <ele>177.19999694824</ele>
        <time>2019-05-30T13:50:26.000Z</time>
      </trkpt>
      <trkpt lat="43.36506" lon="6.66649">
        <ele>178</ele>
        <time>2019-05-30T13:50:30.000Z</time>
      </trkpt>
      <trkpt lat="43.36507" lon="6.66656">
        <ele>178</ele>
        <time>2019-05-30T13:50:31.000Z</time>
      </trkpt>
      <trkpt lat="43.36509" lon="6.66669">
        <ele>178.19999694824</ele>
        <time>2019-05-30T13:50:33.000Z</time>
      </trkpt>
      <trkpt lat="43.36514" lon="6.66683">
        <ele>178.39999389648</ele>
        <time>2019-05-30T13:50:36.000Z</time>
      </trkpt>
      <trkpt lat="43.36515" lon="6.66687">
        <ele>178.80000305176</ele>
        <time>2019-05-30T13:50:37.000Z</time>
      </trkpt>
      <trkpt lat="43.36516" lon="6.66692">
        <ele>179</ele>
        <time>2019-05-30T13:50:38.000Z</time>
      </trkpt>
      <trkpt lat="43.36518" lon="6.66703">
        <ele>179.80000305176</ele>
        <time>2019-05-30T13:50:41.000Z</time>
      </trkpt>
      <trkpt lat="43.36519" lon="6.66719">
        <ele>181</ele>
        <time>2019-05-30T13:50:45.000Z</time>
      </trkpt>
      <trkpt lat="43.36518" lon="6.66743">
        <ele>182</ele>
        <time>2019-05-30T13:50:51.000Z</time>
      </trkpt>
      <trkpt lat="43.36518" lon="6.66754">
        <ele>182.19999694824</ele>
        <time>2019-05-30T13:50:54.000Z</time>
      </trkpt>
      <trkpt lat="43.36522" lon="6.66768">
        <ele>183</ele>
        <time>2019-05-30T13:50:58.000Z</time>
      </trkpt>
      <trkpt lat="43.36525" lon="6.66776">
        <ele>183.39999389648</ele>
        <time>2019-05-30T13:51:00.000Z</time>
      </trkpt>
      <trkpt lat="43.36531" lon="6.6679">
        <ele>184.19999694824</ele>
        <time>2019-05-30T13:51:04.000Z</time>
      </trkpt>
      <trkpt lat="43.36536" lon="6.66804">
        <ele>184.60000610352</ele>
        <time>2019-05-30T13:51:08.000Z</time>
      </trkpt>
      <trkpt lat="43.36539" lon="6.66814">
        <ele>185.19999694824</ele>
        <time>2019-05-30T13:51:11.000Z</time>
      </trkpt>
      <trkpt lat="43.36542" lon="6.66822">
        <ele>186.19999694824</ele>
        <time>2019-05-30T13:51:14.000Z</time>
      </trkpt>
      <trkpt lat="43.36544" lon="6.66831">
        <ele>186.60000610352</ele>
        <time>2019-05-30T13:51:17.000Z</time>
      </trkpt>
      <trkpt lat="43.36547" lon="6.66843">
        <ele>187.19999694824</ele>
        <time>2019-05-30T13:51:21.000Z</time>
      </trkpt>
      <trkpt lat="43.36551" lon="6.66857">
        <ele>187.60000610352</ele>
        <time>2019-05-30T13:51:26.000Z</time>
      </trkpt>
      <trkpt lat="43.36553" lon="6.66865">
        <ele>188.19999694824</ele>
        <time>2019-05-30T13:51:29.000Z</time>
      </trkpt>
      <trkpt lat="43.36555" lon="6.66878">
        <ele>188.60000610352</ele>
        <time>2019-05-30T13:51:33.000Z</time>
      </trkpt>
      <trkpt lat="43.36562" lon="6.66896">
        <ele>189.19999694824</ele>
        <time>2019-05-30T13:51:40.000Z</time>
      </trkpt>
      <trkpt lat="43.36563" lon="6.66898">
        <ele>189.39999389648</ele>
        <time>2019-05-30T13:51:41.000Z</time>
      </trkpt>
      <trkpt lat="43.36571" lon="6.66914">
        <ele>190.39999389648</ele>
        <time>2019-05-30T13:51:48.000Z</time>
      </trkpt>
      <trkpt lat="43.36578" lon="6.66937">
        <ele>191.19999694824</ele>
        <time>2019-05-30T13:51:57.000Z</time>
      </trkpt>
      <trkpt lat="43.36579" lon="6.6696">
        <ele>191.39999389648</ele>
        <time>2019-05-30T13:52:05.000Z</time>
      </trkpt>
      <trkpt lat="43.36579" lon="6.66964">
        <ele>191.39999389648</ele>
        <time>2019-05-30T13:52:06.000Z</time>
      </trkpt>
      <trkpt lat="43.36572" lon="6.66981">
        <ele>190.80000305176</ele>
        <time>2019-05-30T13:52:11.000Z</time>
      </trkpt>
      <trkpt lat="43.36561" lon="6.66995">
        <ele>191.39999389648</ele>
        <time>2019-05-30T13:52:15.000Z</time>
      </trkpt>
      <trkpt lat="43.36557" lon="6.66998">
        <ele>191.60000610352</ele>
        <time>2019-05-30T13:52:16.000Z</time>
      </trkpt>
      <trkpt lat="43.36541" lon="6.67003">
        <ele>190.60000610352</ele>
        <time>2019-05-30T13:52:19.000Z</time>
      </trkpt>
      <trkpt lat="43.36536" lon="6.67004">
        <ele>189.80000305176</ele>
        <time>2019-05-30T13:52:20.000Z</time>
      </trkpt>
      <trkpt lat="43.36524" lon="6.67007">
        <ele>188.19999694824</ele>
        <time>2019-05-30T13:52:22.000Z</time>
      </trkpt>
      <trkpt lat="43.36512" lon="6.67009">
        <ele>186.80000305176</ele>
        <time>2019-05-30T13:52:24.000Z</time>
      </trkpt>
      <trkpt lat="43.36506" lon="6.67011">
        <ele>186.19999694824</ele>
        <time>2019-05-30T13:52:25.000Z</time>
      </trkpt>
      <trkpt lat="43.365" lon="6.67015">
        <ele>186</ele>
        <time>2019-05-30T13:52:26.000Z</time>
      </trkpt>
      <trkpt lat="43.36496" lon="6.67019">
        <ele>185.60000610352</ele>
        <time>2019-05-30T13:52:27.000Z</time>
      </trkpt>
      <trkpt lat="43.36489" lon="6.67027">
        <ele>185.80000305176</ele>
        <time>2019-05-30T13:52:29.000Z</time>
      </trkpt>
      <trkpt lat="43.36484" lon="6.67031">
        <ele>185.80000305176</ele>
        <time>2019-05-30T13:52:30.000Z</time>
      </trkpt>
      <trkpt lat="43.36474" lon="6.67042">
        <ele>186.60000610352</ele>
        <time>2019-05-30T13:52:33.000Z</time>
      </trkpt>
      <trkpt lat="43.36463" lon="6.67055">
        <ele>187</ele>
        <time>2019-05-30T13:52:37.000Z</time>
      </trkpt>
      <trkpt lat="43.36457" lon="6.67063">
        <ele>187.60000610352</ele>
        <time>2019-05-30T13:52:39.000Z</time>
      </trkpt>
      <trkpt lat="43.36448" lon="6.67085">
        <ele>188.19999694824</ele>
        <time>2019-05-30T13:52:44.000Z</time>
      </trkpt>
      <trkpt lat="43.36445" lon="6.67094">
        <ele>188.80000305176</ele>
        <time>2019-05-30T13:52:46.000Z</time>
      </trkpt>
      <trkpt lat="43.36436" lon="6.67107">
        <ele>189.19999694824</ele>
        <time>2019-05-30T13:52:51.000Z</time>
      </trkpt>
      <trkpt lat="43.36427" lon="6.67128">
        <ele>189.39999389648</ele>
        <time>2019-05-30T13:52:56.000Z</time>
      </trkpt>
      <trkpt lat="43.36417" lon="6.6716">
        <ele>187.60000610352</ele>
        <time>2019-05-30T13:53:00.000Z</time>
      </trkpt>
      <trkpt lat="43.36415" lon="6.67169">
        <ele>186.80000305176</ele>
        <time>2019-05-30T13:53:01.000Z</time>
      </trkpt>
      <trkpt lat="43.36412" lon="6.67178">
        <ele>186</ele>
        <time>2019-05-30T13:53:02.000Z</time>
      </trkpt>
      <trkpt lat="43.36409" lon="6.6719">
        <ele>184.60000610352</ele>
        <time>2019-05-30T13:53:03.000Z</time>
      </trkpt>
      <trkpt lat="43.36405" lon="6.67201">
        <ele>185.60000610352</ele>
        <time>2019-05-30T13:53:04.000Z</time>
      </trkpt>
      <trkpt lat="43.36402" lon="6.67211">
        <ele>184.80000305176</ele>
        <time>2019-05-30T13:53:05.000Z</time>
      </trkpt>
      <trkpt lat="43.36398" lon="6.67223">
        <ele>184</ele>
        <time>2019-05-30T13:53:06.000Z</time>
      </trkpt>
      <trkpt lat="43.3639" lon="6.67245">
        <ele>182</ele>
        <time>2019-05-30T13:53:08.000Z</time>
      </trkpt>
      <trkpt lat="43.36381" lon="6.67266">
        <ele>180</ele>
        <time>2019-05-30T13:53:10.000Z</time>
      </trkpt>
      <trkpt lat="43.36378" lon="6.67276">
        <ele>178.80000305176</ele>
        <time>2019-05-30T13:53:11.000Z</time>
      </trkpt>
      <trkpt lat="43.36374" lon="6.67285">
        <ele>177.80000305176</ele>
        <time>2019-05-30T13:53:12.000Z</time>
      </trkpt>
      <trkpt lat="43.36367" lon="6.67302">
        <ele>175.80000305176</ele>
        <time>2019-05-30T13:53:14.000Z</time>
      </trkpt>
      <trkpt lat="43.36364" lon="6.67309">
        <ele>175.19999694824</ele>
        <time>2019-05-30T13:53:15.000Z</time>
      </trkpt>
      <trkpt lat="43.36362" lon="6.67315">
        <ele>174.19999694824</ele>
        <time>2019-05-30T13:53:16.000Z</time>
      </trkpt>
      <trkpt lat="43.36359" lon="6.67319">
        <ele>173.60000610352</ele>
        <time>2019-05-30T13:53:17.000Z</time>
      </trkpt>
      <trkpt lat="43.36354" lon="6.67321">
        <ele>172.80000305176</ele>
        <time>2019-05-30T13:53:18.000Z</time>
      </trkpt>
      <trkpt lat="43.36343" lon="6.67321">
        <ele>171.60000610352</ele>
        <time>2019-05-30T13:53:20.000Z</time>
      </trkpt>
      <trkpt lat="43.36337" lon="6.6732">
        <ele>171</ele>
        <time>2019-05-30T13:53:21.000Z</time>
      </trkpt>
      <trkpt lat="43.36332" lon="6.67319">
        <ele>170.19999694824</ele>
        <time>2019-05-30T13:53:22.000Z</time>
      </trkpt>
      <trkpt lat="43.36326" lon="6.67319">
        <ele>169.60000610352</ele>
        <time>2019-05-30T13:53:23.000Z</time>
      </trkpt>
      <trkpt lat="43.36315" lon="6.67321">
        <ele>169</ele>
        <time>2019-05-30T13:53:25.000Z</time>
      </trkpt>
      <trkpt lat="43.36313" lon="6.67324">
        <ele>169</ele>
        <time>2019-05-30T13:53:26.000Z</time>
      </trkpt>
      <trkpt lat="43.36308" lon="6.67329">
        <ele>168.80000305176</ele>
        <time>2019-05-30T13:53:28.000Z</time>
      </trkpt>
      <trkpt lat="43.36301" lon="6.67331">
        <ele>168.60000610352</ele>
        <time>2019-05-30T13:53:30.000Z</time>
      </trkpt>
      <trkpt lat="43.36283" lon="6.67331">
        <ele>168</ele>
        <time>2019-05-30T13:53:34.000Z</time>
      </trkpt>
      <trkpt lat="43.36272" lon="6.67331">
        <ele>167.39999389648</ele>
        <time>2019-05-30T13:53:36.000Z</time>
      </trkpt>
      <trkpt lat="43.3626" lon="6.67331">
        <ele>166.80000305176</ele>
        <time>2019-05-30T13:53:38.000Z</time>
      </trkpt>
      <trkpt lat="43.36242" lon="6.67332">
        <ele>165.80000305176</ele>
        <time>2019-05-30T13:53:41.000Z</time>
      </trkpt>
      <trkpt lat="43.36235" lon="6.67332">
        <ele>165.60000610352</ele>
        <time>2019-05-30T13:53:42.000Z</time>
      </trkpt>
      <trkpt lat="43.36187" lon="6.67334">
        <ele>164.39999389648</ele>
        <time>2019-05-30T13:53:49.000Z</time>
      </trkpt>
      <trkpt lat="43.3618" lon="6.67334">
        <ele>163.19999694824</ele>
        <time>2019-05-30T13:53:50.000Z</time>
      </trkpt>
      <trkpt lat="43.36166" lon="6.67334">
        <ele>161.19999694824</ele>
        <time>2019-05-30T13:53:52.000Z</time>
      </trkpt>
      <trkpt lat="43.3615" lon="6.67334">
        <ele>159.80000305176</ele>
        <time>2019-05-30T13:53:54.000Z</time>
      </trkpt>
      <trkpt lat="43.36135" lon="6.67334">
        <ele>158.60000610352</ele>
        <time>2019-05-30T13:53:56.000Z</time>
      </trkpt>
      <trkpt lat="43.36127" lon="6.67334">
        <ele>158.19999694824</ele>
        <time>2019-05-30T13:53:57.000Z</time>
      </trkpt>
      <trkpt lat="43.36119" lon="6.67333">
        <ele>157.60000610352</ele>
        <time>2019-05-30T13:53:58.000Z</time>
      </trkpt>
      <trkpt lat="43.36094" lon="6.67331">
        <ele>156.19999694824</ele>
        <time>2019-05-30T13:54:01.000Z</time>
      </trkpt>
      <trkpt lat="43.36078" lon="6.67329">
        <ele>154.80000305176</ele>
        <time>2019-05-30T13:54:03.000Z</time>
      </trkpt>
      <trkpt lat="43.36064" lon="6.67327">
        <ele>153.60000610352</ele>
        <time>2019-05-30T13:54:05.000Z</time>
      </trkpt>
      <trkpt lat="43.36045" lon="6.67324">
        <ele>152.60000610352</ele>
        <time>2019-05-30T13:54:07.000Z</time>
      </trkpt>
      <trkpt lat="43.36029" lon="6.67321">
        <ele>151</ele>
        <time>2019-05-30T13:54:09.000Z</time>
      </trkpt>
      <trkpt lat="43.36013" lon="6.67319">
        <ele>149.19999694824</ele>
        <time>2019-05-30T13:54:11.000Z</time>
      </trkpt>
      <trkpt lat="43.36006" lon="6.67317">
        <ele>148.60000610352</ele>
        <time>2019-05-30T13:54:12.000Z</time>
      </trkpt>
      <trkpt lat="43.35997" lon="6.67316">
        <ele>148</ele>
        <time>2019-05-30T13:54:13.000Z</time>
      </trkpt>
      <trkpt lat="43.35973" lon="6.67312">
        <ele>146.39999389648</ele>
        <time>2019-05-30T13:54:16.000Z</time>
      </trkpt>
      <trkpt lat="43.35956" lon="6.67309">
        <ele>145.19999694824</ele>
        <time>2019-05-30T13:54:18.000Z</time>
      </trkpt>
      <trkpt lat="43.3594" lon="6.67307">
        <ele>144</ele>
        <time>2019-05-30T13:54:20.000Z</time>
      </trkpt>
      <trkpt lat="43.35917" lon="6.67307">
        <ele>142.60000610352</ele>
        <time>2019-05-30T13:54:23.000Z</time>
      </trkpt>
      <trkpt lat="43.35902" lon="6.6731">
        <ele>142.39999389648</ele>
        <time>2019-05-30T13:54:25.000Z</time>
      </trkpt>
      <trkpt lat="43.35863" lon="6.67323">
        <ele>141.60000610352</ele>
        <time>2019-05-30T13:54:31.000Z</time>
      </trkpt>
      <trkpt lat="43.3585" lon="6.67326">
        <ele>141.60000610352</ele>
        <time>2019-05-30T13:54:33.000Z</time>
      </trkpt>
      <trkpt lat="43.35829" lon="6.67331">
        <ele>140.60000610352</ele>
        <time>2019-05-30T13:54:36.000Z</time>
      </trkpt>
      <trkpt lat="43.35813" lon="6.67334">
        <ele>139.80000305176</ele>
        <time>2019-05-30T13:54:38.000Z</time>
      </trkpt>
      <trkpt lat="43.35798" lon="6.67337">
        <ele>139.19999694824</ele>
        <time>2019-05-30T13:54:40.000Z</time>
      </trkpt>
      <trkpt lat="43.35782" lon="6.67338">
        <ele>138.19999694824</ele>
        <time>2019-05-30T13:54:42.000Z</time>
      </trkpt>
      <trkpt lat="43.35766" lon="6.67339">
        <ele>136.60000610352</ele>
        <time>2019-05-30T13:54:44.000Z</time>
      </trkpt>
      <trkpt lat="43.3575" lon="6.6734">
        <ele>135.19999694824</ele>
        <time>2019-05-30T13:54:46.000Z</time>
      </trkpt>
      <trkpt lat="43.35733" lon="6.67338">
        <ele>134</ele>
        <time>2019-05-30T13:54:48.000Z</time>
      </trkpt>
      <trkpt lat="43.35707" lon="6.67331">
        <ele>132.60000610352</ele>
        <time>2019-05-30T13:54:51.000Z</time>
      </trkpt>
      <trkpt lat="43.35689" lon="6.67325">
        <ele>131.60000610352</ele>
        <time>2019-05-30T13:54:53.000Z</time>
      </trkpt>
      <trkpt lat="43.3567" lon="6.67318">
        <ele>130.19999694824</ele>
        <time>2019-05-30T13:54:55.000Z</time>
      </trkpt>
      <trkpt lat="43.35653" lon="6.67311">
        <ele>129</ele>
        <time>2019-05-30T13:54:57.000Z</time>
      </trkpt>
      <trkpt lat="43.35643" lon="6.67308">
        <ele>128.60000610352</ele>
        <time>2019-05-30T13:54:58.000Z</time>
      </trkpt>
      <trkpt lat="43.35623" lon="6.67307">
        <ele>127.80000305176</ele>
        <time>2019-05-30T13:55:00.000Z</time>
      </trkpt>
      <trkpt lat="43.35614" lon="6.6731">
        <ele>127.40000152588</ele>
        <time>2019-05-30T13:55:01.000Z</time>
      </trkpt>
      <trkpt lat="43.35595" lon="6.6732">
        <ele>126.19999694824</ele>
        <time>2019-05-30T13:55:03.000Z</time>
      </trkpt>
      <trkpt lat="43.35579" lon="6.67334">
        <ele>124.59999847412</ele>
        <time>2019-05-30T13:55:05.000Z</time>
      </trkpt>
      <trkpt lat="43.35566" lon="6.67354">
        <ele>122.80000305176</ele>
        <time>2019-05-30T13:55:07.000Z</time>
      </trkpt>
      <trkpt lat="43.3556" lon="6.67366">
        <ele>122</ele>
        <time>2019-05-30T13:55:08.000Z</time>
      </trkpt>
      <trkpt lat="43.35555" lon="6.67378">
        <ele>120.59999847412</ele>
        <time>2019-05-30T13:55:09.000Z</time>
      </trkpt>
      <trkpt lat="43.35551" lon="6.6739">
        <ele>120</ele>
        <time>2019-05-30T13:55:10.000Z</time>
      </trkpt>
      <trkpt lat="43.35546" lon="6.67402">
        <ele>119.19999694824</ele>
        <time>2019-05-30T13:55:11.000Z</time>
      </trkpt>
      <trkpt lat="43.35537" lon="6.67427">
        <ele>117.59999847412</ele>
        <time>2019-05-30T13:55:13.000Z</time>
      </trkpt>
      <trkpt lat="43.35531" lon="6.67437">
        <ele>117</ele>
        <time>2019-05-30T13:55:14.000Z</time>
      </trkpt>
      <trkpt lat="43.35524" lon="6.67447">
        <ele>116</ele>
        <time>2019-05-30T13:55:15.000Z</time>
      </trkpt>
      <trkpt lat="43.35516" lon="6.67455">
        <ele>115.40000152588</ele>
        <time>2019-05-30T13:55:16.000Z</time>
      </trkpt>
      <trkpt lat="43.35509" lon="6.67461">
        <ele>114.59999847412</ele>
        <time>2019-05-30T13:55:17.000Z</time>
      </trkpt>
      <trkpt lat="43.35491" lon="6.67473">
        <ele>113.19999694824</ele>
        <time>2019-05-30T13:55:19.000Z</time>
      </trkpt>
      <trkpt lat="43.35483" lon="6.67477">
        <ele>112.59999847412</ele>
        <time>2019-05-30T13:55:20.000Z</time>
      </trkpt>
      <trkpt lat="43.35474" lon="6.6748">
        <ele>111.80000305176</ele>
        <time>2019-05-30T13:55:21.000Z</time>
      </trkpt>
      <trkpt lat="43.35456" lon="6.67484">
        <ele>110.80000305176</ele>
        <time>2019-05-30T13:55:23.000Z</time>
      </trkpt>
      <trkpt lat="43.35447" lon="6.67483">
        <ele>110.19999694824</ele>
        <time>2019-05-30T13:55:24.000Z</time>
      </trkpt>
      <trkpt lat="43.35429" lon="6.67476">
        <ele>109.19999694824</ele>
        <time>2019-05-30T13:55:26.000Z</time>
      </trkpt>
      <trkpt lat="43.35421" lon="6.67471">
        <ele>108.40000152588</ele>
        <time>2019-05-30T13:55:27.000Z</time>
      </trkpt>
      <trkpt lat="43.35413" lon="6.67464">
        <ele>107.80000305176</ele>
        <time>2019-05-30T13:55:28.000Z</time>
      </trkpt>
      <trkpt lat="43.35405" lon="6.67458">
        <ele>107.19999694824</ele>
        <time>2019-05-30T13:55:29.000Z</time>
      </trkpt>
      <trkpt lat="43.35397" lon="6.67451">
        <ele>106.19999694824</ele>
        <time>2019-05-30T13:55:30.000Z</time>
      </trkpt>
      <trkpt lat="43.35389" lon="6.67446">
        <ele>106</ele>
        <time>2019-05-30T13:55:31.000Z</time>
      </trkpt>
      <trkpt lat="43.35364" lon="6.67432">
        <ele>106.59999847412</ele>
        <time>2019-05-30T13:55:34.000Z</time>
      </trkpt>
      <trkpt lat="43.35346" lon="6.6743">
        <ele>106</ele>
        <time>2019-05-30T13:55:36.000Z</time>
      </trkpt>
      <trkpt lat="43.35337" lon="6.67431">
        <ele>104.59999847412</ele>
        <time>2019-05-30T13:55:37.000Z</time>
      </trkpt>
      <trkpt lat="43.35327" lon="6.67433">
        <ele>103.40000152588</ele>
        <time>2019-05-30T13:55:38.000Z</time>
      </trkpt>
      <trkpt lat="43.35319" lon="6.67436">
        <ele>102.40000152588</ele>
        <time>2019-05-30T13:55:39.000Z</time>
      </trkpt>
      <trkpt lat="43.3531" lon="6.67438">
        <ele>101.19999694824</ele>
        <time>2019-05-30T13:55:40.000Z</time>
      </trkpt>
      <trkpt lat="43.35293" lon="6.67442">
        <ele>99.800003051758</ele>
        <time>2019-05-30T13:55:42.000Z</time>
      </trkpt>
      <trkpt lat="43.35275" lon="6.67442">
        <ele>98.599998474121</ele>
        <time>2019-05-30T13:55:44.000Z</time>
      </trkpt>
      <trkpt lat="43.35266" lon="6.67439">
        <ele>98</ele>
        <time>2019-05-30T13:55:45.000Z</time>
      </trkpt>
      <trkpt lat="43.3525" lon="6.67432">
        <ele>97.400001525879</ele>
        <time>2019-05-30T13:55:47.000Z</time>
      </trkpt>
      <trkpt lat="43.35215" lon="6.67415">
        <ele>95.800003051758</ele>
        <time>2019-05-30T13:55:51.000Z</time>
      </trkpt>
      <trkpt lat="43.35199" lon="6.67407">
        <ele>94.599998474121</ele>
        <time>2019-05-30T13:55:53.000Z</time>
      </trkpt>
      <trkpt lat="43.35176" lon="6.67398">
        <ele>93.599998474121</ele>
        <time>2019-05-30T13:55:56.000Z</time>
      </trkpt>
      <trkpt lat="43.35164" lon="6.67396">
        <ele>93</ele>
        <time>2019-05-30T13:55:57.000Z</time>
      </trkpt>
      <trkpt lat="43.35146" lon="6.67399">
        <ele>92.400001525879</ele>
        <time>2019-05-30T13:55:59.000Z</time>
      </trkpt>
      <trkpt lat="43.35137" lon="6.67404">
        <ele>92.199996948242</ele>
        <time>2019-05-30T13:56:00.000Z</time>
      </trkpt>
      <trkpt lat="43.35117" lon="6.67429">
        <ele>91.199996948242</ele>
        <time>2019-05-30T13:56:03.000Z</time>
      </trkpt>
      <trkpt lat="43.35104" lon="6.67447">
        <ele>89.199996948242</ele>
        <time>2019-05-30T13:56:05.000Z</time>
      </trkpt>
      <trkpt lat="43.35093" lon="6.67468">
        <ele>87.400001525879</ele>
        <time>2019-05-30T13:56:07.000Z</time>
      </trkpt>
      <trkpt lat="43.35089" lon="6.67478">
        <ele>86.599998474121</ele>
        <time>2019-05-30T13:56:08.000Z</time>
      </trkpt>
      <trkpt lat="43.35084" lon="6.6749">
        <ele>85.599998474121</ele>
        <time>2019-05-30T13:56:09.000Z</time>
      </trkpt>
      <trkpt lat="43.35074" lon="6.67513">
        <ele>84.599998474121</ele>
        <time>2019-05-30T13:56:11.000Z</time>
      </trkpt>
      <trkpt lat="43.35064" lon="6.67535">
        <ele>82.599998474121</ele>
        <time>2019-05-30T13:56:13.000Z</time>
      </trkpt>
      <trkpt lat="43.35052" lon="6.67555">
        <ele>81.199996948242</ele>
        <time>2019-05-30T13:56:15.000Z</time>
      </trkpt>
      <trkpt lat="43.35045" lon="6.67565">
        <ele>81</ele>
        <time>2019-05-30T13:56:16.000Z</time>
      </trkpt>
      <trkpt lat="43.35028" lon="6.67575">
        <ele>81</ele>
        <time>2019-05-30T13:56:18.000Z</time>
      </trkpt>
      <trkpt lat="43.35" lon="6.67574">
        <ele>80</ele>
        <time>2019-05-30T13:56:21.000Z</time>
      </trkpt>
      <trkpt lat="43.34982" lon="6.67568">
        <ele>78.599998474121</ele>
        <time>2019-05-30T13:56:23.000Z</time>
      </trkpt>
      <trkpt lat="43.34964" lon="6.67561">
        <ele>77.400001525879</ele>
        <time>2019-05-30T13:56:25.000Z</time>
      </trkpt>
      <trkpt lat="43.34956" lon="6.67558">
        <ele>76.800003051758</ele>
        <time>2019-05-30T13:56:26.000Z</time>
      </trkpt>
      <trkpt lat="43.34947" lon="6.67557">
        <ele>76.199996948242</ele>
        <time>2019-05-30T13:56:27.000Z</time>
      </trkpt>
      <trkpt lat="43.34938" lon="6.67557">
        <ele>75.599998474121</ele>
        <time>2019-05-30T13:56:28.000Z</time>
      </trkpt>
      <trkpt lat="43.34929" lon="6.67558">
        <ele>75</ele>
        <time>2019-05-30T13:56:29.000Z</time>
      </trkpt>
      <trkpt lat="43.3492" lon="6.67561">
        <ele>74.599998474121</ele>
        <time>2019-05-30T13:56:30.000Z</time>
      </trkpt>
      <trkpt lat="43.34912" lon="6.67566">
        <ele>74</ele>
        <time>2019-05-30T13:56:31.000Z</time>
      </trkpt>
      <trkpt lat="43.34896" lon="6.67578">
        <ele>72.800003051758</ele>
        <time>2019-05-30T13:56:33.000Z</time>
      </trkpt>
      <trkpt lat="43.34888" lon="6.67584">
        <ele>72.199996948242</ele>
        <time>2019-05-30T13:56:34.000Z</time>
      </trkpt>
      <trkpt lat="43.34881" lon="6.67588">
        <ele>71.599998474121</ele>
        <time>2019-05-30T13:56:35.000Z</time>
      </trkpt>
      <trkpt lat="43.34864" lon="6.67595">
        <ele>70.400001525879</ele>
        <time>2019-05-30T13:56:37.000Z</time>
      </trkpt>
      <trkpt lat="43.34855" lon="6.67595">
        <ele>70.199996948242</ele>
        <time>2019-05-30T13:56:38.000Z</time>
      </trkpt>
      <trkpt lat="43.34838" lon="6.67588">
        <ele>69.199996948242</ele>
        <time>2019-05-30T13:56:40.000Z</time>
      </trkpt>
      <trkpt lat="43.3483" lon="6.67584">
        <ele>68.800003051758</ele>
        <time>2019-05-30T13:56:41.000Z</time>
      </trkpt>
      <trkpt lat="43.34822" lon="6.67582">
        <ele>68.199996948242</ele>
        <time>2019-05-30T13:56:42.000Z</time>
      </trkpt>
      <trkpt lat="43.34813" lon="6.67582">
        <ele>67.599998474121</ele>
        <time>2019-05-30T13:56:43.000Z</time>
      </trkpt>
      <trkpt lat="43.34805" lon="6.67584">
        <ele>67</ele>
        <time>2019-05-30T13:56:44.000Z</time>
      </trkpt>
      <trkpt lat="43.34796" lon="6.67588">
        <ele>66.199996948242</ele>
        <time>2019-05-30T13:56:45.000Z</time>
      </trkpt>
      <trkpt lat="43.34788" lon="6.67592">
        <ele>65.800003051758</ele>
        <time>2019-05-30T13:56:46.000Z</time>
      </trkpt>
      <trkpt lat="43.3478" lon="6.67595">
        <ele>65.199996948242</ele>
        <time>2019-05-30T13:56:47.000Z</time>
      </trkpt>
      <trkpt lat="43.34771" lon="6.67599">
        <ele>64.400001525879</ele>
        <time>2019-05-30T13:56:48.000Z</time>
      </trkpt>
      <trkpt lat="43.34762" lon="6.676">
        <ele>63.799999237061</ele>
        <time>2019-05-30T13:56:49.000Z</time>
      </trkpt>
      <trkpt lat="43.34743" lon="6.67597">
        <ele>62.599998474121</ele>
        <time>2019-05-30T13:56:51.000Z</time>
      </trkpt>
      <trkpt lat="43.34727" lon="6.67588">
        <ele>61.400001525879</ele>
        <time>2019-05-30T13:56:53.000Z</time>
      </trkpt>
      <trkpt lat="43.34718" lon="6.67583">
        <ele>60.799999237061</ele>
        <time>2019-05-30T13:56:54.000Z</time>
      </trkpt>
      <trkpt lat="43.34701" lon="6.67576">
        <ele>60</ele>
        <time>2019-05-30T13:56:56.000Z</time>
      </trkpt>
      <trkpt lat="43.34675" lon="6.67567">
        <ele>58.599998474121</ele>
        <time>2019-05-30T13:56:59.000Z</time>
      </trkpt>
      <trkpt lat="43.34666" lon="6.67561">
        <ele>58</ele>
        <time>2019-05-30T13:57:00.000Z</time>
      </trkpt>
      <trkpt lat="43.34659" lon="6.67553">
        <ele>57.400001525879</ele>
        <time>2019-05-30T13:57:01.000Z</time>
      </trkpt>
      <trkpt lat="43.34653" lon="6.67544">
        <ele>56.799999237061</ele>
        <time>2019-05-30T13:57:02.000Z</time>
      </trkpt>
      <trkpt lat="43.34649" lon="6.67531">
        <ele>56.200000762939</ele>
        <time>2019-05-30T13:57:03.000Z</time>
      </trkpt>
      <trkpt lat="43.34646" lon="6.67521">
        <ele>55.599998474121</ele>
        <time>2019-05-30T13:57:04.000Z</time>
      </trkpt>
      <trkpt lat="43.34642" lon="6.67512">
        <ele>55</ele>
        <time>2019-05-30T13:57:05.000Z</time>
      </trkpt>
      <trkpt lat="43.34631" lon="6.67508">
        <ele>53.799999237061</ele>
        <time>2019-05-30T13:57:07.000Z</time>
      </trkpt>
      <trkpt lat="43.34623" lon="6.67522">
        <ele>52.599998474121</ele>
        <time>2019-05-30T13:57:09.000Z</time>
      </trkpt>
      <trkpt lat="43.34626" lon="6.67539">
        <ele>51.599998474121</ele>
        <time>2019-05-30T13:57:11.000Z</time>
      </trkpt>
      <trkpt lat="43.34627" lon="6.67549">
        <ele>51.400001525879</ele>
        <time>2019-05-30T13:57:12.000Z</time>
      </trkpt>
      <trkpt lat="43.34628" lon="6.67559">
        <ele>51.200000762939</ele>
        <time>2019-05-30T13:57:13.000Z</time>
      </trkpt>
      <trkpt lat="43.34625" lon="6.67577">
        <ele>50.599998474121</ele>
        <time>2019-05-30T13:57:15.000Z</time>
      </trkpt>
      <trkpt lat="43.34624" lon="6.67594">
        <ele>50.400001525879</ele>
        <time>2019-05-30T13:57:17.000Z</time>
      </trkpt>
      <trkpt lat="43.34626" lon="6.67613">
        <ele>50</ele>
        <time>2019-05-30T13:57:19.000Z</time>
      </trkpt>
      <trkpt lat="43.34631" lon="6.67631">
        <ele>49</ele>
        <time>2019-05-30T13:57:21.000Z</time>
      </trkpt>
      <trkpt lat="43.34634" lon="6.67639">
        <ele>48.599998474121</ele>
        <time>2019-05-30T13:57:22.000Z</time>
      </trkpt>
      <trkpt lat="43.34639" lon="6.67659">
        <ele>48</ele>
        <time>2019-05-30T13:57:24.000Z</time>
      </trkpt>
      <trkpt lat="43.34641" lon="6.67669">
        <ele>47.799999237061</ele>
        <time>2019-05-30T13:57:25.000Z</time>
      </trkpt>
      <trkpt lat="43.3465" lon="6.67711">
        <ele>46.599998474121</ele>
        <time>2019-05-30T13:57:29.000Z</time>
      </trkpt>
      <trkpt lat="43.3465" lon="6.67723">
        <ele>46.400001525879</ele>
        <time>2019-05-30T13:57:30.000Z</time>
      </trkpt>
      <trkpt lat="43.34635" lon="6.67752">
        <ele>45.599998474121</ele>
        <time>2019-05-30T13:57:33.000Z</time>
      </trkpt>
      <trkpt lat="43.34619" lon="6.67761">
        <ele>43.799999237061</ele>
        <time>2019-05-30T13:57:35.000Z</time>
      </trkpt>
      <trkpt lat="43.3461" lon="6.67765">
        <ele>42.799999237061</ele>
        <time>2019-05-30T13:57:36.000Z</time>
      </trkpt>
      <trkpt lat="43.34601" lon="6.67768">
        <ele>41.799999237061</ele>
        <time>2019-05-30T13:57:37.000Z</time>
      </trkpt>
      <trkpt lat="43.34583" lon="6.67775">
        <ele>40</ele>
        <time>2019-05-30T13:57:39.000Z</time>
      </trkpt>
      <trkpt lat="43.34565" lon="6.67781">
        <ele>38.799999237061</ele>
        <time>2019-05-30T13:57:41.000Z</time>
      </trkpt>
      <trkpt lat="43.34545" lon="6.67784">
        <ele>37.599998474121</ele>
        <time>2019-05-30T13:57:43.000Z</time>
      </trkpt>
      <trkpt lat="43.34528" lon="6.6778">
        <ele>36.400001525879</ele>
        <time>2019-05-30T13:57:45.000Z</time>
      </trkpt>
      <trkpt lat="43.3452" lon="6.67774">
        <ele>36</ele>
        <time>2019-05-30T13:57:46.000Z</time>
      </trkpt>
      <trkpt lat="43.34508" lon="6.67758">
        <ele>35.200000762939</ele>
        <time>2019-05-30T13:57:48.000Z</time>
      </trkpt>
      <trkpt lat="43.34503" lon="6.67748">
        <ele>35</ele>
        <time>2019-05-30T13:57:49.000Z</time>
      </trkpt>
      <trkpt lat="43.34495" lon="6.67728">
        <ele>34</ele>
        <time>2019-05-30T13:57:51.000Z</time>
      </trkpt>
      <trkpt lat="43.34489" lon="6.67707">
        <ele>33</ele>
        <time>2019-05-30T13:57:53.000Z</time>
      </trkpt>
      <trkpt lat="43.34486" lon="6.67696">
        <ele>32.799999237061</ele>
        <time>2019-05-30T13:57:54.000Z</time>
      </trkpt>
      <trkpt lat="43.34481" lon="6.67679">
        <ele>32.400001525879</ele>
        <time>2019-05-30T13:57:56.000Z</time>
      </trkpt>
      <trkpt lat="43.34477" lon="6.67674">
        <ele>32.200000762939</ele>
        <time>2019-05-30T13:57:57.000Z</time>
      </trkpt>
      <trkpt lat="43.34466" lon="6.67674">
        <ele>31.60000038147</ele>
        <time>2019-05-30T13:57:59.000Z</time>
      </trkpt>
      <trkpt lat="43.34457" lon="6.67686">
        <ele>30.799999237061</ele>
        <time>2019-05-30T13:58:01.000Z</time>
      </trkpt>
      <trkpt lat="43.34455" lon="6.67692">
        <ele>30.200000762939</ele>
        <time>2019-05-30T13:58:02.000Z</time>
      </trkpt>
      <trkpt lat="43.34451" lon="6.67707">
        <ele>29</ele>
        <time>2019-05-30T13:58:04.000Z</time>
      </trkpt>
      <trkpt lat="43.3445" lon="6.67714">
        <ele>28.799999237061</ele>
        <time>2019-05-30T13:58:05.000Z</time>
      </trkpt>
      <trkpt lat="43.34447" lon="6.67745">
        <ele>27.799999237061</ele>
        <time>2019-05-30T13:58:09.000Z</time>
      </trkpt>
      <trkpt lat="43.34445" lon="6.67763">
        <ele>26.60000038147</ele>
        <time>2019-05-30T13:58:11.000Z</time>
      </trkpt>
      <trkpt lat="43.34441" lon="6.67792">
        <ele>25.200000762939</ele>
        <time>2019-05-30T13:58:14.000Z</time>
      </trkpt>
      <trkpt lat="43.3444" lon="6.67822">
        <ele>24</ele>
        <time>2019-05-30T13:58:17.000Z</time>
      </trkpt>
      <trkpt lat="43.34445" lon="6.67857">
        <ele>23</ele>
        <time>2019-05-30T13:58:20.000Z</time>
      </trkpt>
      <trkpt lat="43.34448" lon="6.67867">
        <ele>22.60000038147</ele>
        <time>2019-05-30T13:58:21.000Z</time>
      </trkpt>
      <trkpt lat="43.34455" lon="6.67886">
        <ele>21.799999237061</ele>
        <time>2019-05-30T13:58:23.000Z</time>
      </trkpt>
      <trkpt lat="43.34464" lon="6.67913">
        <ele>21</ele>
        <time>2019-05-30T13:58:26.000Z</time>
      </trkpt>
      <trkpt lat="43.34466" lon="6.67921">
        <ele>20.799999237061</ele>
        <time>2019-05-30T13:58:27.000Z</time>
      </trkpt>
      <trkpt lat="43.34478" lon="6.67955">
        <ele>20</ele>
        <time>2019-05-30T13:58:31.000Z</time>
      </trkpt>
      <trkpt lat="43.34485" lon="6.67978">
        <ele>20</ele>
        <time>2019-05-30T13:58:34.000Z</time>
      </trkpt>
      <trkpt lat="43.34489" lon="6.67995">
        <ele>20</ele>
        <time>2019-05-30T13:58:37.000Z</time>
      </trkpt>
      <trkpt lat="43.34483" lon="6.68002">
        <ele>20.200000762939</ele>
        <time>2019-05-30T13:58:39.000Z</time>
      </trkpt>
      <trkpt lat="43.34464" lon="6.68011">
        <ele>20.39999961853</ele>
        <time>2019-05-30T13:58:43.000Z</time>
      </trkpt>
      <trkpt lat="43.34459" lon="6.68014">
        <ele>20.39999961853</ele>
        <time>2019-05-30T13:58:44.000Z</time>
      </trkpt>
      <trkpt lat="43.34454" lon="6.68016">
        <ele>20.200000762939</ele>
        <time>2019-05-30T13:58:45.000Z</time>
      </trkpt>
      <trkpt lat="43.34441" lon="6.68021">
        <ele>19.799999237061</ele>
        <time>2019-05-30T13:58:48.000Z</time>
      </trkpt>
      <trkpt lat="43.34436" lon="6.68023">
        <ele>19.60000038147</ele>
        <time>2019-05-30T13:58:49.000Z</time>
      </trkpt>
      <trkpt lat="43.34426" lon="6.68029">
        <ele>20</ele>
        <time>2019-05-30T13:58:51.000Z</time>
      </trkpt>
      <trkpt lat="43.34421" lon="6.68033">
        <ele>20.200000762939</ele>
        <time>2019-05-30T13:58:52.000Z</time>
      </trkpt>
      <trkpt lat="43.34404" lon="6.68054">
        <ele>20.200000762939</ele>
        <time>2019-05-30T13:58:56.000Z</time>
      </trkpt>
      <trkpt lat="43.34402" lon="6.6806">
        <ele>19.799999237061</ele>
        <time>2019-05-30T13:58:57.000Z</time>
      </trkpt>
      <trkpt lat="43.34386" lon="6.68098">
        <ele>19.200000762939</ele>
        <time>2019-05-30T13:59:03.000Z</time>
      </trkpt>
      <trkpt lat="43.34379" lon="6.68108">
        <ele>19.39999961853</ele>
        <time>2019-05-30T13:59:05.000Z</time>
      </trkpt>
      <trkpt lat="43.3437" lon="6.68112">
        <ele>19.60000038147</ele>
        <time>2019-05-30T13:59:07.000Z</time>
      </trkpt>
      <trkpt lat="43.34358" lon="6.68114">
        <ele>20</ele>
        <time>2019-05-30T13:59:09.000Z</time>
      </trkpt>
      <trkpt lat="43.34352" lon="6.68116">
        <ele>20</ele>
        <time>2019-05-30T13:59:10.000Z</time>
      </trkpt>
      <trkpt lat="43.34346" lon="6.68119">
        <ele>19.799999237061</ele>
        <time>2019-05-30T13:59:11.000Z</time>
      </trkpt>
      <trkpt lat="43.3433" lon="6.6813">
        <ele>18.799999237061</ele>
        <time>2019-05-30T13:59:14.000Z</time>
      </trkpt>
      <trkpt lat="43.34325" lon="6.68134">
        <ele>18.60000038147</ele>
        <time>2019-05-30T13:59:15.000Z</time>
      </trkpt>
      <trkpt lat="43.34316" lon="6.68143">
        <ele>18.60000038147</ele>
        <time>2019-05-30T13:59:17.000Z</time>
      </trkpt>
      <trkpt lat="43.34301" lon="6.68156">
        <ele>18.200000762939</ele>
        <time>2019-05-30T13:59:20.000Z</time>
      </trkpt>
      <trkpt lat="43.34286" lon="6.68166">
        <ele>18.60000038147</ele>
        <time>2019-05-30T13:59:23.000Z</time>
      </trkpt>
      <trkpt lat="43.34257" lon="6.68186">
        <ele>18</ele>
        <time>2019-05-30T13:59:29.000Z</time>
      </trkpt>
      <trkpt lat="43.34253" lon="6.6819">
        <ele>18</ele>
        <time>2019-05-30T13:59:30.000Z</time>
      </trkpt>
      <trkpt lat="43.34241" lon="6.68201">
        <ele>18.200000762939</ele>
        <time>2019-05-30T13:59:33.000Z</time>
      </trkpt>
      <trkpt lat="43.34232" lon="6.68209">
        <ele>18.60000038147</ele>
        <time>2019-05-30T13:59:36.000Z</time>
      </trkpt>
      <trkpt lat="43.34226" lon="6.68212">
        <ele>19.200000762939</ele>
        <time>2019-05-30T13:59:40.000Z</time>
      </trkpt>
      <trkpt lat="43.34216" lon="6.6822">
        <ele>19.200000762939</ele>
        <time>2019-05-30T13:59:46.000Z</time>
      </trkpt>
      <trkpt lat="43.34201" lon="6.68231">
        <ele>19</ele>
        <time>2019-05-30T13:59:52.000Z</time>
      </trkpt>
      <trkpt lat="43.34189" lon="6.68241">
        <ele>19.60000038147</ele>
        <time>2019-05-30T13:59:57.000Z</time>
      </trkpt>
      <trkpt lat="43.34187" lon="6.68243">
        <ele>19.799999237061</ele>
        <time>2019-05-30T13:59:58.000Z</time>
      </trkpt>
      <trkpt lat="43.34173" lon="6.68247">
        <ele>20.200000762939</ele>
        <time>2019-05-30T14:00:03.000Z</time>
      </trkpt>
      <trkpt lat="43.34166" lon="6.68245">
        <ele>20.60000038147</ele>
        <time>2019-05-30T14:00:07.000Z</time>
      </trkpt>
      <trkpt lat="43.34164" lon="6.68246">
        <ele>20.799999237061</ele>
        <time>2019-05-30T14:00:08.000Z</time>
      </trkpt>
      <trkpt lat="43.34164" lon="6.68247">
        <ele>20.39999961853</ele>
        <time>2019-05-30T14:00:12.000Z</time>
      </trkpt>
      <trkpt lat="43.34163" lon="6.68249">
        <ele>20.39999961853</ele>
        <time>2019-05-30T14:00:21.000Z</time>
      </trkpt>
      <trkpt lat="43.34162" lon="6.6825">
        <ele>20.60000038147</ele>
        <time>2019-05-30T14:00:34.000Z</time>
      </trkpt>
      <trkpt lat="43.34161" lon="6.68253">
        <ele>20.39999961853</ele>
        <time>2019-05-30T14:00:40.000Z</time>
      </trkpt>
      <trkpt lat="43.3416" lon="6.68255">
        <ele>20.39999961853</ele>
        <time>2019-05-30T14:00:41.000Z</time>
      </trkpt>
      <trkpt lat="43.34153" lon="6.68265">
        <ele>20.200000762939</ele>
        <time>2019-05-30T14:00:46.000Z</time>
      </trkpt>
      <trkpt lat="43.34149" lon="6.68263">
        <ele>20.200000762939</ele>
        <time>2019-05-30T14:00:49.000Z</time>
      </trkpt>
      <trkpt lat="43.34139" lon="6.68256">
        <ele>20.200000762939</ele>
        <time>2019-05-30T14:00:54.000Z</time>
      </trkpt>
      <trkpt lat="43.34131" lon="6.68262">
        <ele>18.60000038147</ele>
        <time>2019-05-30T14:00:57.000Z</time>
      </trkpt>
      <trkpt lat="43.34129" lon="6.68263">
        <ele>18</ele>
        <time>2019-05-30T14:00:58.000Z</time>
      </trkpt>
      <trkpt lat="43.34124" lon="6.68264">
        <ele>17.60000038147</ele>
        <time>2019-05-30T14:01:00.000Z</time>
      </trkpt>
      <trkpt lat="43.34119" lon="6.68271">
        <ele>18</ele>
        <time>2019-05-30T14:01:03.000Z</time>
      </trkpt>
      <trkpt lat="43.34111" lon="6.68284">
        <ele>17.200000762939</ele>
        <time>2019-05-30T14:01:09.000Z</time>
      </trkpt>
      <trkpt lat="43.34109" lon="6.68294">
        <ele>16.39999961853</ele>
        <time>2019-05-30T14:01:12.000Z</time>
      </trkpt>
      <trkpt lat="43.34107" lon="6.68303">
        <ele>16.200000762939</ele>
        <time>2019-05-30T14:01:14.000Z</time>
      </trkpt>
      <trkpt lat="43.341" lon="6.68322">
        <ele>15.60000038147</ele>
        <time>2019-05-30T14:01:18.000Z</time>
      </trkpt>
      <trkpt lat="43.34096" lon="6.6833">
        <ele>15.199999809265</ele>
        <time>2019-05-30T14:01:20.000Z</time>
      </trkpt>
      <trkpt lat="43.34087" lon="6.68344">
        <ele>14.60000038147</ele>
        <time>2019-05-30T14:01:24.000Z</time>
      </trkpt>
      <trkpt lat="43.34086" lon="6.68345">
        <ele>15.60000038147</ele>
        <time>2019-05-30T14:01:27.000Z</time>
      </trkpt>
      <trkpt lat="43.34085" lon="6.68348">
        <ele>16.39999961853</ele>
        <time>2019-05-30T14:01:30.000Z</time>
      </trkpt>
      <trkpt lat="43.34085" lon="6.68352">
        <ele>17.200000762939</ele>
        <time>2019-05-30T14:01:33.000Z</time>
      </trkpt>
      <trkpt lat="43.34084" lon="6.68353">
        <ele>17.60000038147</ele>
        <time>2019-05-30T14:01:34.000Z</time>
      </trkpt>
      <trkpt lat="43.34079" lon="6.68356">
        <ele>18.39999961853</ele>
        <time>2019-05-30T14:01:38.000Z</time>
      </trkpt>
      <trkpt lat="43.34078" lon="6.68357">
        <ele>18.39999961853</ele>
        <time>2019-05-30T14:01:44.000Z</time>
      </trkpt>
      <trkpt lat="43.34076" lon="6.68359">
        <ele>18</ele>
        <time>2019-05-30T14:01:55.000Z</time>
      </trkpt>
      <trkpt lat="43.34076" lon="6.68361">
        <ele>18</ele>
        <time>2019-05-30T14:02:01.000Z</time>
      </trkpt>
      <trkpt lat="43.34075" lon="6.68362">
        <ele>18</ele>
        <time>2019-05-30T14:02:09.000Z</time>
      </trkpt>
      <trkpt lat="43.34075" lon="6.68366">
        <ele>18</ele>
        <time>2019-05-30T14:02:17.000Z</time>
      </trkpt>
      <trkpt lat="43.34074" lon="6.68369">
        <ele>18</ele>
        <time>2019-05-30T14:02:25.000Z</time>
      </trkpt>
      <trkpt lat="43.34074" lon="6.68369">
        <ele>18.200000762939</ele>
        <time>2019-05-30T14:02:28.000Z</time>
      </trkpt>
    </trkseg>
  </trk>
</gpx>